createdAt,value
2024-03-15T00:00:10.739Z,3775.00
2024-03-15T00:01:10.677Z,3780.00
2024-03-15T00:02:10.701Z,3769.00
2024-03-15T00:03:10.668Z,3770.00
2024-03-15T00:04:10.672Z,3762.00
2024-03-15T00:05:10.696Z,3765.00
2024-03-15T00:06:10.691Z,3765.00
2024-03-15T00:07:10.683Z,3757.00
2024-03-15T00:08:10.668Z,3757.00
2024-03-15T00:09:10.784Z,3757.00
2024-03-15T00:10:10.681Z,3744.00
2024-03-15T00:11:10.791Z,3751.00
2024-03-15T00:12:10.690Z,3748.00
2024-03-15T00:13:10.728Z,3739.00
2024-03-15T00:14:10.678Z,3739.00
2024-03-15T00:15:10.802Z,3729.00
2024-03-15T00:16:10.685Z,3732.00
2024-03-15T00:17:10.690Z,3732.00
2024-03-15T00:18:10.855Z,3735.00
2024-03-15T00:19:10.703Z,3728.00
2024-03-15T00:20:10.692Z,3732.00
2024-03-15T00:21:10.749Z,3722.00
2024-03-15T00:22:10.707Z,3725.00
2024-03-15T00:23:10.703Z,3724.00
2024-03-15T00:24:10.777Z,3708.00
2024-03-15T00:25:10.714Z,3714.00
2024-03-15T00:26:10.720Z,3703.00
2024-03-15T00:27:10.759Z,3704.00
2024-03-15T00:28:10.709Z,3705.00
2024-03-15T00:29:10.737Z,3705.00
2024-03-15T00:30:10.741Z,3702.00
2024-03-15T00:31:10.719Z,3702.00
2024-03-15T00:32:10.736Z,3703.00
2024-03-15T00:33:10.792Z,3700.00
2024-03-15T00:34:10.734Z,3698.00
2024-03-15T00:35:10.721Z,3698.00
2024-03-15T00:36:10.719Z,3700.00
2024-03-15T00:37:10.738Z,3696.00
2024-03-15T00:38:10.717Z,3696.00
2024-03-15T00:39:10.760Z,3692.00
2024-03-15T00:40:10.757Z,3688.00
2024-03-15T00:41:10.726Z,3682.00
2024-03-15T00:42:10.838Z,3686.00
2024-03-15T00:43:10.721Z,3687.00
2024-03-15T00:44:10.741Z,3685.00
2024-03-15T00:45:10.757Z,3685.00
2024-03-15T00:46:10.796Z,3669.00
2024-03-15T00:47:10.744Z,3672.00
2024-03-15T00:48:10.827Z,3663.00
2024-03-15T00:49:10.776Z,3661.00
2024-03-15T00:50:10.739Z,3667.00
2024-03-15T00:51:10.781Z,3659.00
2024-03-15T00:52:10.780Z,3657.00
2024-03-15T00:53:10.750Z,3654.00
2024-03-15T00:54:10.840Z,3658.00
2024-03-15T00:55:10.759Z,3653.00
2024-03-15T00:56:10.753Z,3654.00
2024-03-15T00:57:10.771Z,3649.00
2024-03-15T00:58:10.757Z,3645.00
2024-03-15T00:59:10.760Z,3645.00
2024-03-15T01:00:10.801Z,3643.00
2024-03-15T01:01:10.791Z,3642.00
2024-03-15T01:02:10.759Z,3641.00
2024-03-15T01:03:10.765Z,3627.00
2024-03-15T01:04:10.751Z,3625.00
2024-03-15T01:05:10.791Z,3626.00
2024-03-15T01:06:10.825Z,3625.00
2024-03-15T01:07:10.767Z,3623.00
2024-03-15T01:08:10.772Z,3618.00
2024-03-15T01:09:10.776Z,3620.00
2024-03-15T01:10:10.774Z,3621.00
2024-03-15T01:11:10.790Z,3608.00
2024-03-15T01:12:10.826Z,3613.00
2024-03-15T01:13:10.780Z,3604.00
2024-03-15T01:14:10.766Z,3595.00
2024-03-15T01:15:10.833Z,3598.00
2024-03-15T01:16:10.770Z,3589.00
2024-03-15T01:17:10.795Z,3602.00
2024-03-15T01:18:10.896Z,3587.00
2024-03-15T01:19:10.815Z,3592.00
2024-03-15T01:20:10.815Z,3596.00
2024-03-15T01:21:10.821Z,3594.00
2024-03-15T01:22:10.845Z,3585.00
2024-03-15T01:23:10.793Z,3589.00
2024-03-15T01:24:10.835Z,3589.00
2024-03-15T01:25:10.826Z,3588.00
2024-03-15T01:26:10.802Z,3585.00
2024-03-15T01:27:10.840Z,3590.00
2024-03-15T01:28:10.806Z,3584.00
2024-03-15T01:29:10.803Z,3585.00
2024-03-15T01:30:10.837Z,3581.00
2024-03-15T01:31:10.811Z,3577.00
2024-03-15T01:32:10.825Z,3574.00
2024-03-15T01:33:10.846Z,3570.00
2024-03-15T01:34:10.799Z,3562.00
2024-03-15T01:35:10.826Z,3567.00
2024-03-15T01:36:10.823Z,3565.00
2024-03-15T01:37:10.825Z,3567.00
2024-03-15T01:38:10.812Z,3556.00
2024-03-15T01:39:10.847Z,3563.00
2024-03-15T01:40:10.915Z,3561.00
2024-03-15T01:41:10.814Z,3550.00
2024-03-15T01:42:10.842Z,3553.00
2024-03-15T01:43:10.866Z,3549.00
2024-03-15T01:44:10.839Z,3543.00
2024-03-15T01:45:10.870Z,3537.00
2024-03-15T01:46:10.815Z,3544.00
2024-03-15T01:47:10.825Z,3539.00
2024-03-15T01:48:10.981Z,3535.00
2024-03-15T01:49:10.867Z,3540.00
2024-03-15T01:50:10.818Z,3532.00
2024-03-15T01:51:10.862Z,3530.00
2024-03-15T01:52:10.826Z,3526.00
2024-03-15T01:53:10.823Z,3523.00
2024-03-15T01:54:10.871Z,3516.00
2024-03-15T01:55:10.831Z,3532.00
2024-03-15T01:56:10.838Z,3532.00
2024-03-15T01:57:10.870Z,3521.00
2024-03-15T01:58:10.832Z,3518.00
2024-03-15T01:59:10.838Z,3516.00
2024-03-15T02:00:10.900Z,3519.00
2024-03-15T02:01:10.881Z,3528.00
2024-03-15T02:02:10.860Z,3524.00
2024-03-15T02:03:10.880Z,3519.00
2024-03-15T02:04:10.844Z,3521.00
2024-03-15T02:05:10.843Z,3520.00
2024-03-15T02:06:10.863Z,3514.00
2024-03-15T02:07:10.887Z,3512.00
2024-03-15T02:08:10.867Z,3517.00
2024-03-15T02:09:10.904Z,3506.00
2024-03-15T02:10:10.928Z,3506.00
2024-03-15T02:11:10.909Z,3505.00
2024-03-15T02:12:10.892Z,3498.00
2024-03-15T02:13:10.850Z,3503.00
2024-03-15T02:14:10.856Z,3501.00
2024-03-15T02:15:10.884Z,3494.00
2024-03-15T02:16:10.858Z,3493.00
2024-03-15T02:17:10.863Z,3484.00
2024-03-15T02:18:11.006Z,3486.00
2024-03-15T02:19:10.937Z,3493.00
2024-03-15T02:20:10.870Z,3482.00
2024-03-15T02:21:10.875Z,3481.00
2024-03-15T02:22:10.883Z,3473.00
2024-03-15T02:23:10.876Z,3470.00
2024-03-15T02:24:10.870Z,3475.00
2024-03-15T02:25:10.875Z,3472.00
2024-03-15T02:26:10.895Z,3471.00
2024-03-15T02:27:10.905Z,3464.00
2024-03-15T02:28:10.882Z,3467.00
2024-03-15T02:29:10.912Z,3456.00
2024-03-15T02:30:10.930Z,3452.00
2024-03-15T02:31:10.886Z,3460.00
2024-03-15T02:32:10.899Z,3463.00
2024-03-15T02:33:10.984Z,3453.00
2024-03-15T02:34:10.925Z,3452.00
2024-03-15T02:35:19.896Z,3454.00
2024-03-15T02:36:11.984Z,3454.00
2024-03-15T02:37:10.907Z,3453.00
2024-03-15T02:38:10.915Z,3454.00
2024-03-15T02:39:10.925Z,3448.00
2024-03-15T02:40:10.908Z,3447.00
2024-03-15T02:41:10.900Z,3446.00
2024-03-15T02:42:10.942Z,3452.00
2024-03-15T02:43:10.912Z,3443.00
2024-03-15T02:44:10.937Z,3440.00
2024-03-15T02:45:10.936Z,3442.00
2024-03-15T02:46:10.912Z,3432.00
2024-03-15T02:47:10.916Z,3441.00
2024-03-15T02:48:10.979Z,3441.00
2024-03-15T02:49:10.933Z,3441.00
2024-03-15T02:50:10.950Z,3436.00
2024-03-15T02:51:10.975Z,3430.00
2024-03-15T02:52:10.948Z,3436.00
2024-03-15T02:53:10.926Z,3427.00
2024-03-15T02:54:14.579Z,3431.00
2024-03-15T02:55:10.927Z,3432.00
2024-03-15T02:56:10.930Z,3432.00
2024-03-15T02:57:11.036Z,3433.00
2024-03-15T02:58:10.955Z,3432.00
2024-03-15T02:59:10.969Z,3426.00
2024-03-15T03:00:11.070Z,3426.00
2024-03-15T03:01:10.965Z,3423.00
2024-03-15T03:02:10.961Z,3424.00
2024-03-15T03:03:10.987Z,3424.00
2024-03-15T03:04:10.938Z,3424.00
2024-03-15T03:05:10.955Z,3429.00
2024-03-15T03:06:10.967Z,3432.00
2024-03-15T03:07:10.959Z,3424.00
2024-03-15T03:08:10.948Z,3414.00
2024-03-15T03:09:11.129Z,3416.00
2024-03-15T03:10:10.949Z,3419.00
2024-03-15T03:11:10.973Z,3400.00
2024-03-15T03:12:11.229Z,3418.00
2024-03-15T03:13:11.026Z,3406.00
2024-03-15T03:14:10.957Z,3403.00
2024-03-15T03:15:10.983Z,3396.00
2024-03-15T03:16:11.012Z,3388.00
2024-03-15T03:17:10.975Z,3373.00
2024-03-15T03:18:11.035Z,3343.00
2024-03-15T03:19:11.143Z,3303.00
2024-03-15T03:20:10.978Z,3252.00
2024-03-15T03:21:11.019Z,3178.00
2024-03-15T03:22:10.987Z,3125.00
2024-03-15T03:23:10.973Z,3058.00
2024-03-15T03:24:11.003Z,2991.00
2024-03-15T03:25:10.987Z,2926.00
2024-03-15T03:26:10.983Z,2875.00
2024-03-15T03:27:11.011Z,2817.00
2024-03-15T03:28:11.024Z,2767.00
2024-03-15T03:29:10.996Z,2715.00
2024-03-15T03:30:11.025Z,2665.00
2024-03-15T03:31:10.994Z,2603.00
2024-03-15T03:32:13.132Z,2542.00
2024-03-15T03:33:11.256Z,2497.00
2024-03-15T03:34:11.000Z,2445.00
2024-03-15T03:35:11.021Z,2398.00
2024-03-15T03:36:11.033Z,2358.00
2024-03-15T03:37:11.008Z,2303.00
2024-03-15T03:38:11.023Z,2248.00
2024-03-15T03:39:11.036Z,2208.00
2024-03-15T03:40:11.007Z,2160.00
2024-03-15T03:41:11.049Z,2124.00
2024-03-15T03:42:11.036Z,2078.00
2024-03-15T03:43:11.046Z,2036.00
2024-03-15T03:44:11.023Z,1998.00
2024-03-15T03:45:11.037Z,1972.00
2024-03-15T03:46:11.014Z,1940.00
2024-03-15T03:47:11.021Z,1901.00
2024-03-15T03:48:11.267Z,1864.00
2024-03-15T03:49:11.027Z,1835.00
2024-03-15T03:50:11.023Z,1806.00
2024-03-15T03:51:11.102Z,1783.00
2024-03-15T03:52:11.134Z,1748.00
2024-03-15T03:53:11.254Z,1713.00
2024-03-15T03:54:11.336Z,1689.00
2024-03-15T03:55:11.349Z,1662.00
2024-03-15T03:56:11.407Z,1645.00
2024-03-15T03:57:11.708Z,1609.00
2024-03-15T03:58:11.572Z,1589.00
2024-03-15T03:59:11.593Z,1571.00
2024-03-15T04:00:11.659Z,1536.00
2024-03-15T04:01:13.099Z,1519.00
2024-03-15T04:02:11.774Z,1498.00
2024-03-15T04:03:11.728Z,1473.00
2024-03-15T04:04:11.695Z,1448.00
2024-03-15T04:05:11.729Z,1425.00
2024-03-15T04:06:11.760Z,1403.00
2024-03-15T04:07:11.695Z,1385.00
2024-03-15T04:08:11.706Z,1377.00
2024-03-15T04:09:11.741Z,1371.00
2024-03-15T04:10:11.735Z,1366.00
2024-03-15T04:11:11.717Z,1356.00
2024-03-15T04:12:11.730Z,1347.00
2024-03-15T04:13:11.733Z,1351.00
2024-03-15T04:14:11.697Z,1327.00
2024-03-15T04:15:21.045Z,1327.00
2024-03-15T04:16:12.842Z,1327.00
2024-03-15T04:17:11.724Z,1319.00
2024-03-15T04:18:11.774Z,1299.00
2024-03-15T04:19:11.708Z,1298.00
2024-03-15T04:20:11.712Z,1294.00
2024-03-15T04:21:11.801Z,1291.00
2024-03-15T04:22:11.772Z,1294.00
2024-03-15T04:23:11.729Z,1289.00
2024-03-15T04:24:11.728Z,1283.00
2024-03-15T04:25:11.708Z,1285.00
2024-03-15T04:26:11.747Z,1272.00
2024-03-15T04:27:11.752Z,1280.00
2024-03-15T04:28:11.725Z,1269.00
2024-03-15T04:29:11.713Z,1262.00
2024-03-15T04:30:11.771Z,1256.00
2024-03-15T04:31:11.724Z,1250.00
2024-03-15T04:32:11.778Z,1241.00
2024-03-15T04:33:11.774Z,1248.00
2024-03-15T04:34:11.838Z,1247.00
2024-03-15T04:35:11.730Z,1247.00
2024-03-15T04:36:19.007Z,600.00
2024-03-15T04:37:18.986Z,600.00
2024-03-15T04:38:18.986Z,600.00
2024-03-15T04:39:19.052Z,600.00
2024-03-15T04:40:19.001Z,600.00
2024-03-15T04:41:18.997Z,605.00
2024-03-15T04:42:19.053Z,602.00
2024-03-15T04:43:18.997Z,602.00
2024-03-15T04:44:19.008Z,600.00
2024-03-15T04:45:19.109Z,602.00
2024-03-15T04:46:19.006Z,603.00
2024-03-15T04:47:19.001Z,603.00
2024-03-15T04:48:19.096Z,604.00
2024-03-15T04:49:19.002Z,601.00
2024-03-15T04:50:19.013Z,606.00
2024-03-15T04:51:19.050Z,607.00
2024-03-15T04:52:19.028Z,610.00
2024-03-15T04:53:19.013Z,611.00
2024-03-15T04:54:19.064Z,614.00
2024-03-15T04:55:19.017Z,615.00
2024-03-15T04:56:19.043Z,616.00
2024-03-15T04:57:19.058Z,622.00
2024-03-15T04:58:19.030Z,620.00
2024-03-15T04:59:19.025Z,623.00
2024-03-15T05:00:19.603Z,624.00
2024-03-15T05:01:19.122Z,623.00
2024-03-15T05:02:19.039Z,620.00
2024-03-15T05:03:19.066Z,619.00
2024-03-15T05:04:19.082Z,616.00
2024-03-15T05:05:19.226Z,615.00
2024-03-15T05:06:23.814Z,619.00
2024-03-15T05:07:20.080Z,616.00
2024-03-15T05:08:19.058Z,615.00
2024-03-15T05:09:19.140Z,613.00
2024-03-15T05:10:19.740Z,618.00
2024-03-15T05:11:19.057Z,619.00
2024-03-15T05:12:19.095Z,622.00
2024-03-15T05:13:19.048Z,632.00
2024-03-15T05:14:19.048Z,634.00
2024-03-15T05:15:19.250Z,644.00
2024-03-15T05:16:19.048Z,646.00
2024-03-15T05:17:19.088Z,646.00
2024-03-15T05:18:19.144Z,648.00
2024-03-15T05:19:22.033Z,651.00
2024-03-15T05:20:19.060Z,647.00
2024-03-15T05:21:19.067Z,649.00
2024-03-15T05:22:19.070Z,656.00
2024-03-15T05:23:19.066Z,665.00
2024-03-15T05:24:19.180Z,696.00
2024-03-15T05:25:19.072Z,710.00
2024-03-15T05:26:19.079Z,720.00
2024-03-15T05:27:19.154Z,748.00
2024-03-15T05:28:19.090Z,750.00
2024-03-15T05:29:19.092Z,775.00
2024-03-15T05:30:19.595Z,799.00
2024-03-15T05:31:19.080Z,823.00
2024-03-15T05:32:19.085Z,840.00
2024-03-15T05:33:19.172Z,877.00
2024-03-15T05:34:19.198Z,892.00
2024-03-15T05:35:19.104Z,918.00
2024-03-15T05:36:19.102Z,949.00
2024-03-15T05:37:19.102Z,954.00
2024-03-15T05:38:19.097Z,975.00
2024-03-15T05:39:19.133Z,995.00
2024-03-15T05:40:19.410Z,1016.00
2024-03-15T05:41:19.094Z,1045.00
2024-03-15T05:42:19.129Z,1072.00
2024-03-15T05:43:19.092Z,1099.00
2024-03-15T05:44:19.100Z,1121.00
2024-03-15T05:45:19.178Z,1144.00
2024-03-15T05:46:19.116Z,1160.00
2024-03-15T05:47:19.119Z,1183.00
2024-03-15T05:48:19.219Z,1201.00
2024-03-15T05:49:19.124Z,1217.00
2024-03-15T05:50:19.118Z,1249.00
2024-03-15T05:51:19.154Z,1285.00
2024-03-15T05:52:19.117Z,1312.00
2024-03-15T05:53:19.121Z,1345.00
2024-03-15T05:54:19.154Z,1375.00
2024-03-15T05:55:19.130Z,1401.00
2024-03-15T05:56:19.122Z,1398.00
2024-03-15T05:57:19.200Z,1401.00
2024-03-15T05:58:19.152Z,1423.00
2024-03-15T05:59:19.131Z,1436.00
2024-03-15T06:00:19.216Z,1457.00
2024-03-15T06:01:19.175Z,1487.00
2024-03-15T06:02:19.172Z,1498.00
2024-03-15T06:03:19.186Z,1509.00
2024-03-15T06:04:19.145Z,1544.00
2024-03-15T06:05:19.134Z,1571.00
2024-03-15T06:06:19.313Z,1592.00
2024-03-15T06:07:19.216Z,1625.00
2024-03-15T06:08:19.255Z,1656.00
2024-03-15T06:09:19.276Z,1668.00
2024-03-15T06:10:19.347Z,1693.00
2024-03-15T06:11:19.304Z,1703.00
2024-03-15T06:12:19.442Z,1711.00
2024-03-15T06:13:19.405Z,1720.00
2024-03-15T06:14:19.401Z,1721.00
2024-03-15T06:15:19.488Z,1726.00
2024-03-15T06:16:19.399Z,1738.00
2024-03-15T06:17:19.424Z,1762.00
2024-03-15T06:18:19.467Z,1723.00
2024-03-15T06:19:19.391Z,1735.00
2024-03-15T06:20:19.375Z,1761.00
2024-03-15T06:21:19.418Z,1811.00
2024-03-15T06:22:19.404Z,1872.00
2024-03-15T06:23:19.411Z,1726.00
2024-03-15T06:24:19.431Z,1751.00
2024-03-15T06:25:19.392Z,1728.00
2024-03-15T06:26:19.415Z,1754.00
2024-03-15T06:27:19.386Z,1805.00
2024-03-15T06:28:19.396Z,1879.00
2024-03-15T06:29:19.535Z,1984.00
2024-03-15T06:30:19.478Z,1996.00
2024-03-15T06:31:19.400Z,2000.00
2024-03-15T06:32:19.434Z,1999.00
2024-03-15T06:33:19.459Z,1988.00
2024-03-15T06:34:19.407Z,1989.00
2024-03-15T06:35:19.414Z,1991.00
2024-03-15T06:36:19.440Z,2001.00
2024-03-15T06:37:19.449Z,1992.00
2024-03-15T06:38:19.437Z,1985.00
2024-03-15T06:39:19.510Z,1978.00
2024-03-15T06:40:19.434Z,1985.00
2024-03-15T06:41:19.422Z,1991.00
2024-03-15T06:42:19.425Z,2003.00
2024-03-15T06:43:19.427Z,2003.00
2024-03-15T06:44:19.413Z,2004.00
2024-03-15T06:45:19.456Z,2012.00
2024-03-15T06:46:19.429Z,2019.00
2024-03-15T06:47:19.820Z,2026.00
2024-03-15T06:48:19.803Z,2028.00
2024-03-15T06:49:19.433Z,2028.00
2024-03-15T06:50:19.459Z,2032.00
2024-03-15T06:51:19.523Z,2033.00
2024-03-15T06:52:19.445Z,2060.00
2024-03-15T06:53:20.460Z,2077.00
2024-03-15T06:54:20.505Z,2078.00
2024-03-15T06:55:19.440Z,2103.00
2024-03-15T06:56:19.449Z,2110.00
2024-03-15T06:57:19.514Z,2127.00
2024-03-15T06:58:24.047Z,2128.00
2024-03-15T06:59:20.475Z,2129.00
2024-03-15T07:00:19.536Z,2131.00
2024-03-15T07:01:19.512Z,2137.00
2024-03-15T07:02:19.470Z,2141.00
2024-03-15T07:03:19.522Z,2147.00
2024-03-15T07:04:19.482Z,2154.00
2024-03-15T07:05:19.496Z,2155.00
2024-03-15T07:06:19.505Z,2158.00
2024-03-15T07:07:19.468Z,2153.00
2024-03-15T07:08:19.471Z,2157.00
2024-03-15T07:09:19.490Z,2150.00
2024-03-15T07:10:19.473Z,2128.00
2024-03-15T07:11:19.473Z,2140.00
2024-03-15T07:12:19.486Z,2136.00
2024-03-15T07:13:19.485Z,2136.00
2024-03-15T07:14:19.528Z,2136.00
2024-03-15T07:15:19.496Z,2128.00
2024-03-15T07:16:19.830Z,2112.00
2024-03-15T07:17:19.557Z,2111.00
2024-03-15T07:18:20.779Z,2106.00
2024-03-15T07:19:19.598Z,2095.00
2024-03-15T07:20:19.575Z,2098.00
2024-03-15T07:21:19.614Z,2102.00
2024-03-15T07:22:19.562Z,2093.00
2024-03-15T07:23:19.510Z,2108.00
2024-03-15T07:24:19.582Z,2092.00
2024-03-15T07:25:19.520Z,2106.00
2024-03-15T07:26:20.300Z,2094.00
2024-03-15T07:27:19.627Z,2089.00
2024-03-15T07:28:19.501Z,2088.00
2024-03-15T07:29:19.850Z,2080.00
2024-03-15T07:30:19.630Z,2065.00
2024-03-15T07:31:19.486Z,2067.00
2024-03-15T07:32:19.516Z,2079.00
2024-03-15T07:33:19.569Z,2079.00
2024-03-15T07:34:19.552Z,2074.00
2024-03-15T07:35:19.494Z,2080.00
2024-03-15T07:36:19.546Z,2081.00
2024-03-15T07:37:19.651Z,2080.00
2024-03-15T07:38:19.525Z,2080.00
2024-03-15T07:39:19.549Z,2069.00
2024-03-15T07:40:19.629Z,2068.00
2024-03-15T07:41:19.729Z,2066.00
2024-03-15T07:42:19.720Z,2078.00
2024-03-15T07:43:19.672Z,2065.00
2024-03-15T07:44:19.685Z,2049.00
2024-03-15T07:45:19.758Z,2053.00
2024-03-15T07:46:20.952Z,2049.00
2024-03-15T07:47:20.679Z,2049.00
2024-03-15T07:48:19.930Z,2050.00
2024-03-15T07:49:19.873Z,2053.00
2024-03-15T07:50:19.863Z,2052.00
2024-03-15T07:51:19.799Z,2050.00
2024-03-15T07:52:19.814Z,2044.00
2024-03-15T07:53:19.807Z,2050.00
2024-03-15T07:54:19.860Z,2041.00
2024-03-15T07:55:19.799Z,2030.00
2024-03-15T07:56:19.787Z,2012.00
2024-03-15T07:57:19.819Z,1990.00
2024-03-15T07:58:19.946Z,1981.00
2024-03-15T07:59:19.921Z,1976.00
2024-03-15T08:00:19.851Z,1961.00
2024-03-15T08:01:19.972Z,1941.00
2024-03-15T08:02:19.995Z,1927.00
2024-03-15T08:03:20.245Z,1908.00
2024-03-15T08:04:19.830Z,1886.00
2024-03-15T08:05:19.806Z,1870.00
2024-03-15T08:06:19.930Z,1854.00
2024-03-15T08:07:19.821Z,1827.00
2024-03-15T08:08:19.927Z,1810.00
2024-03-15T08:09:19.862Z,1784.00
2024-03-15T08:10:20.120Z,1770.00
2024-03-15T08:11:19.872Z,1731.00
2024-03-15T08:12:19.883Z,1713.00
2024-03-15T08:13:19.827Z,1692.00
2024-03-15T08:14:19.914Z,1675.00
2024-03-15T08:15:19.937Z,1655.00
2024-03-15T08:16:20.387Z,1622.00
2024-03-15T08:17:19.846Z,1601.00
2024-03-15T08:18:19.894Z,1578.00
2024-03-15T08:19:19.990Z,1556.00
2024-03-15T08:20:19.897Z,1539.00
2024-03-15T08:21:19.930Z,1532.00
2024-03-15T08:22:20.063Z,1496.00
2024-03-15T08:23:19.922Z,1484.00
2024-03-15T08:24:20.079Z,1463.00
2024-03-15T08:25:20.008Z,1427.00
2024-03-15T08:26:20.033Z,1386.00
2024-03-15T08:27:20.148Z,1351.00
2024-03-15T08:28:20.263Z,1299.00
2024-03-15T08:29:20.222Z,1236.00
2024-03-15T08:30:20.384Z,1186.00
2024-03-15T08:31:20.344Z,1145.00
2024-03-15T08:32:20.748Z,1096.00
2024-03-15T08:33:20.477Z,1051.00
2024-03-15T08:34:20.850Z,999.00
2024-03-15T08:35:21.196Z,969.00
2024-03-15T08:36:20.750Z,927.00
2024-03-15T08:37:20.728Z,880.00
2024-03-15T08:38:21.236Z,829.00
2024-03-15T08:39:20.815Z,828.00
2024-03-15T08:40:20.866Z,820.00
2024-03-15T08:41:20.763Z,804.00
2024-03-15T08:42:20.815Z,789.00
2024-03-15T08:43:20.794Z,761.00
2024-03-15T08:44:20.833Z,746.00
2024-03-15T08:45:20.829Z,731.00
2024-03-15T08:46:20.818Z,718.00
2024-03-15T08:47:20.886Z,695.00
2024-03-15T08:48:21.805Z,696.00
2024-03-15T08:49:21.044Z,699.00
2024-03-15T08:50:20.894Z,716.00
2024-03-15T08:51:20.903Z,728.00
2024-03-15T08:52:20.987Z,744.00
2024-03-15T08:53:21.037Z,752.00
2024-03-15T08:54:21.112Z,767.00
2024-03-15T08:55:21.398Z,780.00
2024-03-15T08:56:21.376Z,802.00
2024-03-15T08:57:21.313Z,813.00
2024-03-15T08:58:21.318Z,813.00
2024-03-15T08:59:21.339Z,815.00
2024-03-15T09:00:21.392Z,818.00
2024-03-15T09:01:21.370Z,833.00
2024-03-15T09:02:21.351Z,849.00
2024-03-15T09:03:21.321Z,860.00
2024-03-15T09:04:21.380Z,856.00
2024-03-15T09:05:21.386Z,860.00
2024-03-15T09:06:21.331Z,860.00
2024-03-15T09:07:21.395Z,857.00
2024-03-15T09:08:21.391Z,844.00
2024-03-15T09:09:21.333Z,826.00
2024-03-15T09:10:21.557Z,812.00
2024-03-15T09:11:21.504Z,775.00
2024-03-15T09:12:21.366Z,775.00
2024-03-15T09:13:21.309Z,763.00
2024-03-15T09:14:22.322Z,738.00
2024-03-15T09:15:21.553Z,752.00
2024-03-15T09:16:21.392Z,739.00
2024-03-15T09:17:21.381Z,760.00
2024-03-15T09:18:21.439Z,770.00
2024-03-15T09:19:21.629Z,779.00
2024-03-15T09:20:21.625Z,798.00
2024-03-15T09:21:22.122Z,792.00
2024-03-15T09:22:21.740Z,798.00
2024-03-15T09:23:21.710Z,799.00
2024-03-15T09:24:21.781Z,792.00
2024-03-15T09:25:21.829Z,779.00
2024-03-15T09:26:21.943Z,791.00
2024-03-15T09:27:22.103Z,784.00
2024-03-15T09:28:22.275Z,788.00
2024-03-15T09:29:22.241Z,785.00
2024-03-15T09:30:22.195Z,771.00
2024-03-15T09:31:37.841Z,771.00
2024-03-15T09:32:23.321Z,756.00
2024-03-15T09:33:22.455Z,754.00
2024-03-15T09:34:22.351Z,753.00
2024-03-15T09:35:23.153Z,732.00
2024-03-15T09:36:23.357Z,747.00
2024-03-15T09:37:24.419Z,737.00
2024-03-15T09:38:22.262Z,733.00
2024-03-15T09:39:22.407Z,731.00
2024-03-15T09:40:22.685Z,728.00
2024-03-15T09:41:22.337Z,733.00
2024-03-15T09:42:22.559Z,736.00
2024-03-15T09:43:22.294Z,738.00
2024-03-15T09:44:22.381Z,733.00
2024-03-15T09:45:22.411Z,737.00
2024-03-15T09:46:22.354Z,735.00
2024-03-15T09:47:22.355Z,747.00
2024-03-15T09:48:22.428Z,740.00
2024-03-15T09:49:22.516Z,745.00
2024-03-15T09:50:22.367Z,756.00
2024-03-15T09:51:22.338Z,754.00
2024-03-15T09:52:22.282Z,755.00
2024-03-15T09:53:23.223Z,761.00
2024-03-15T09:54:22.286Z,762.00
2024-03-15T09:55:22.331Z,751.00
2024-03-15T09:56:22.391Z,749.00
2024-03-15T09:57:22.322Z,753.00
2024-03-15T09:58:22.450Z,753.00
2024-03-15T09:59:22.331Z,755.00
2024-03-15T10:00:24.529Z,763.00
2024-03-15T10:01:22.429Z,773.00
2024-03-15T10:02:22.341Z,782.00
2024-03-15T10:03:22.575Z,782.00
2024-03-15T10:04:22.404Z,787.00
2024-03-15T10:05:22.348Z,788.00
2024-03-15T10:06:22.362Z,785.00
2024-03-15T10:07:22.774Z,781.00
2024-03-15T10:08:22.332Z,772.00
2024-03-15T10:09:22.365Z,766.00
2024-03-15T10:10:22.321Z,757.00
2024-03-15T10:11:22.445Z,742.00
2024-03-15T10:12:22.368Z,737.00
2024-03-15T10:13:22.370Z,702.00
2024-03-15T10:14:22.395Z,688.00
2024-03-15T10:15:22.507Z,655.00
2024-03-15T10:16:22.334Z,632.00
2024-03-15T10:17:22.375Z,572.00
2024-03-15T10:18:22.471Z,518.00
2024-03-15T10:19:23.365Z,450.00
2024-03-15T10:20:22.486Z,400.00
2024-03-15T10:21:22.428Z,400.00
2024-03-15T10:22:22.368Z,400.00
2024-03-15T10:23:22.369Z,400.00
2024-03-15T10:24:22.384Z,400.00
2024-03-15T10:25:23.731Z,400.00
2024-03-15T10:26:22.399Z,400.00
2024-03-15T10:27:22.438Z,400.00
2024-03-15T10:28:22.544Z,400.00
2024-03-15T10:29:22.376Z,400.00
2024-03-15T10:30:22.352Z,400.00
2024-03-15T10:31:23.255Z,400.00
2024-03-15T10:32:22.466Z,400.00
2024-03-15T10:33:22.483Z,400.00
2024-03-15T10:34:22.350Z,439.00
2024-03-15T10:35:22.408Z,483.00
2024-03-15T10:36:22.448Z,529.00
2024-03-15T10:37:22.368Z,578.00
2024-03-15T10:38:22.388Z,606.00
2024-03-15T10:39:22.382Z,619.00
2024-03-15T10:40:22.382Z,636.00
2024-03-15T10:41:22.395Z,647.00
2024-03-15T10:42:22.426Z,661.00
2024-03-15T10:43:22.391Z,698.00
2024-03-15T10:44:22.381Z,731.00
2024-03-15T10:45:22.393Z,768.00
2024-03-15T10:46:22.396Z,812.00
2024-03-15T10:47:22.563Z,844.00
2024-03-15T10:48:22.533Z,853.00
2024-03-15T10:49:23.282Z,878.00
2024-03-15T10:50:22.452Z,921.00
2024-03-15T10:51:22.526Z,961.00
2024-03-15T10:52:22.496Z,962.00
2024-03-15T10:53:22.722Z,974.00
2024-03-15T10:54:22.471Z,1005.00
2024-03-15T10:55:23.281Z,1066.00
2024-03-15T10:56:22.452Z,967.00
2024-03-15T10:57:22.437Z,998.00
2024-03-15T10:58:22.421Z,1058.00
2024-03-15T10:59:22.426Z,1170.00
2024-03-15T11:00:22.487Z,1331.00
2024-03-15T11:01:22.606Z,1394.00
2024-03-15T11:02:22.483Z,1431.00
2024-03-15T11:03:22.662Z,1478.00
2024-03-15T11:04:22.482Z,1512.00
2024-03-15T11:05:22.468Z,1545.00
2024-03-15T11:06:22.468Z,1547.00
2024-03-15T11:07:22.412Z,1557.00
2024-03-15T11:08:23.361Z,1585.00
2024-03-15T11:09:22.438Z,1642.00
2024-03-15T11:10:22.513Z,1735.00
2024-03-15T11:11:23.050Z,1773.00
2024-03-15T11:12:22.483Z,1805.00
2024-03-15T11:13:22.425Z,1839.00
2024-03-15T11:14:22.492Z,1873.00
2024-03-15T11:15:22.488Z,1898.00
2024-03-15T11:16:22.561Z,1923.00
2024-03-15T11:17:23.696Z,1959.00
2024-03-15T11:18:22.736Z,1970.00
2024-03-15T11:19:22.793Z,2009.00
2024-03-15T11:20:22.593Z,2032.00
2024-03-15T11:21:23.250Z,2052.00
2024-03-15T11:22:22.596Z,2073.00
2024-03-15T11:23:22.576Z,2075.00
2024-03-15T11:24:22.677Z,2081.00
2024-03-15T11:25:22.596Z,2105.00
2024-03-15T11:26:22.955Z,2150.00
2024-03-15T11:27:23.365Z,2201.00
2024-03-15T11:28:22.809Z,2257.00
2024-03-15T11:29:22.600Z,2261.00
2024-03-15T11:30:22.641Z,2281.00
2024-03-15T11:31:22.642Z,2314.00
2024-03-15T11:32:22.691Z,2311.00
2024-03-15T11:33:22.895Z,2329.00
2024-03-15T11:34:22.839Z,2342.00
2024-03-15T11:35:22.941Z,2372.00
2024-03-15T11:36:22.852Z,2387.00
2024-03-15T11:37:22.892Z,2420.00
2024-03-15T11:38:24.368Z,2425.00
2024-03-15T11:39:22.974Z,2438.00
2024-03-15T11:40:23.018Z,2452.00
2024-03-15T11:41:23.244Z,2468.00
2024-03-15T11:42:23.190Z,2477.00
2024-03-15T11:43:23.361Z,2503.00
2024-03-15T11:44:23.341Z,2504.00
2024-03-15T11:45:23.398Z,2514.00
2024-03-15T11:46:23.424Z,2536.00
2024-03-15T11:47:23.497Z,2537.00
2024-03-15T11:48:23.552Z,2537.00
2024-03-15T11:49:23.509Z,2549.00
2024-03-15T11:50:23.466Z,2562.00
2024-03-15T11:51:23.568Z,2598.00
2024-03-15T11:52:23.464Z,2602.00
2024-03-15T11:53:23.578Z,2616.00
2024-03-15T11:54:23.555Z,2618.00
2024-03-15T11:55:23.470Z,2611.00
2024-03-15T11:56:23.495Z,2612.00
2024-03-15T11:57:23.563Z,2617.00
2024-03-15T11:58:23.523Z,2629.00
2024-03-15T11:59:23.498Z,2613.00
2024-03-15T12:00:23.557Z,2620.00
2024-03-15T12:01:23.669Z,2644.00
2024-03-15T12:02:23.837Z,2670.00
2024-03-15T12:03:23.565Z,2706.00
2024-03-15T12:04:23.586Z,2725.00
2024-03-15T12:05:23.509Z,2699.00
2024-03-15T12:06:23.553Z,2718.00
2024-03-15T12:07:23.525Z,2706.00
2024-03-15T12:08:23.651Z,2742.00
2024-03-15T12:09:23.667Z,2723.00
2024-03-15T12:10:23.640Z,2722.00
2024-03-15T12:11:23.810Z,2738.00
2024-03-15T12:12:23.710Z,2738.00